sensor_id;sensor_type;location;lat;lon;timestamp;P1;durP1;ratioP1;P2;durP2;ratioP2
60098;SDS011;62818;49.394;8.686;2023-08-30T00:01:29;3.72;;;2.63;;
60098;SDS011;62818;49.394;8.686;2023-08-30T00:02:29;2.70;;;2.37;;
60098;SDS011;62818;49.394;8.686;2023-08-30T00:03:30;3.23;;;2.50;;
60098;SDS011;62818;49.394;8.686;2023-08-30T00:04:31;6.90;;;2.72;;
60098;SDS011;62818;49.394;8.686;2023-08-30T00:05:32;4.47;;;2.70;;
60098;SDS011;62818;49.394;8.686;2023-08-30T00:06:33;4.75;;;3.05;;
60098;SDS011;62818;49.394;8.686;2023-08-30T00:07:33;2.93;;;2.43;;
60098;SDS011;62818;49.394;8.686;2023-08-30T00:08:34;4.00;;;2.97;;
60098;SDS011;62818;49.394;8.686;2023-08-30T00:09:35;5.22;;;3.10;;
60098;SDS011;62818;49.394;8.686;2023-08-30T00:10:36;5.10;;;3.42;;
60098;SDS011;62818;49.394;8.686;2023-08-30T00:11:38;3.75;;;2.78;;
60098;SDS011;62818;49.394;8.686;2023-08-30T00:12:38;3.00;;;2.43;;
60098;SDS011;62818;49.394;8.686;2023-08-30T00:13:38;6.10;;;3.30;;
60098;SDS011;62818;49.394;8.686;2023-08-30T00:14:40;5.13;;;3.38;;
60098;SDS011;62818;49.394;8.686;2023-08-30T00:15:41;3.80;;;2.73;;
60098;SDS011;62818;49.394;8.686;2023-08-30T00:16:42;5.97;;;3.07;;
60098;SDS011;62818;49.394;8.686;2023-08-30T00:17:42;5.30;;;3.13;;
60098;SDS011;62818;49.394;8.686;2023-08-30T00:18:43;3.08;;;2.78;;
60098;SDS011;62818;49.394;8.686;2023-08-30T00:19:45;4.32;;;2.92;;
60098;SDS011;62818;49.394;8.686;2023-08-30T00:20:46;5.10;;;2.85;;
60098;SDS011;62818;49.394;8.686;2023-08-30T00:21:46;4.40;;;3.10;;
60098;SDS011;62818;49.394;8.686;2023-08-30T00:22:47;3.43;;;3.13;;
60098;SDS011;62818;49.394;8.686;2023-08-30T00:23:51;3.00;;;2.75;;
60098;SDS011;62818;49.394;8.686;2023-08-30T00:24:52;3.00;;;2.67;;
60098;SDS011;62818;49.394;8.686;2023-08-30T00:25:52;3.87;;;3.40;;
60098;SDS011;62818;49.394;8.686;2023-08-30T00:26:53;4.43;;;3.43;;
60098;SDS011;62818;49.394;8.686;2023-08-30T00:27:53;6.10;;;3.03;;
60098;SDS011;62818;49.394;8.686;2023-08-30T00:28:54;3.70;;;3.10;;
60098;SDS011;62818;49.394;8.686;2023-08-30T00:29:54;4.27;;;3.27;;
60098;SDS011;62818;49.394;8.686;2023-08-30T00:30:55;3.87;;;2.90;;
60098;SDS011;62818;49.394;8.686;2023-08-30T00:31:55;6.90;;;3.70;;
60098;SDS011;62818;49.394;8.686;2023-08-30T00:32:56;4.77;;;3.30;;
60098;SDS011;62818;49.394;8.686;2023-08-30T00:33:56;4.87;;;3.60;;
60098;SDS011;62818;49.394;8.686;2023-08-30T00:34:57;3.70;;;3.40;;
60098;SDS011;62818;49.394;8.686;2023-08-30T00:35:58;3.77;;;3.20;;
60098;SDS011;62818;49.394;8.686;2023-08-30T00:36:59;5.25;;;3.15;;
60098;SDS011;62818;49.394;8.686;2023-08-30T00:38:01;3.33;;;2.97;;
60098;SDS011;62818;49.394;8.686;2023-08-30T00:39:02;4.17;;;3.50;;
60098;SDS011;62818;49.394;8.686;2023-08-30T00:40:04;4.68;;;4.10;;
60098;SDS011;62818;49.394;8.686;2023-08-30T00:41:06;6.85;;;3.67;;
60098;SDS011;62818;49.394;8.686;2023-08-30T00:42:06;5.67;;;3.70;;
60098;SDS011;62818;49.394;8.686;2023-08-30T00:43:07;4.50;;;3.50;;
60098;SDS011;62818;49.394;8.686;2023-08-30T00:44:08;4.05;;;3.45;;
60098;SDS011;62818;49.394;8.686;2023-08-30T00:45:08;4.90;;;3.80;;
60098;SDS011;62818;49.394;8.686;2023-08-30T00:46:09;5.80;;;3.38;;
60098;SDS011;62818;49.394;8.686;2023-08-30T00:47:10;4.60;;;3.93;;
60098;SDS011;62818;49.394;8.686;2023-08-30T00:48:10;5.27;;;3.90;;
60098;SDS011;62818;49.394;8.686;2023-08-30T00:49:12;4.60;;;4.15;;
60098;SDS011;62818;49.394;8.686;2023-08-30T00:50:13;4.88;;;3.97;;
60098;SDS011;62818;49.394;8.686;2023-08-30T00:52:15;5.38;;;4.32;;
60098;SDS011;62818;49.394;8.686;2023-08-30T00:53:16;5.13;;;4.30;;
60098;SDS011;62818;49.394;8.686;2023-08-30T00:54:17;6.80;;;4.30;;
60098;SDS011;62818;49.394;8.686;2023-08-30T00:55:18;5.53;;;4.00;;
60098;SDS011;62818;49.394;8.686;2023-08-30T00:56:19;4.97;;;4.30;;
60098;SDS011;62818;49.394;8.686;2023-08-30T00:57:19;4.30;;;3.90;;
60098;SDS011;62818;49.394;8.686;2023-08-30T00:58:20;5.20;;;4.70;;
60098;SDS011;62818;49.394;8.686;2023-08-30T00:59:21;5.10;;;4.43;;
60098;SDS011;62818;49.394;8.686;2023-08-30T01:00:23;4.90;;;4.47;;
60098;SDS011;62818;49.394;8.686;2023-08-30T01:01:23;4.33;;;3.93;;
60098;SDS011;62818;49.394;8.686;2023-08-30T01:02:24;4.88;;;4.40;;
60098;SDS011;62818;49.394;8.686;2023-08-30T01:03:25;6.53;;;4.35;;
60098;SDS011;62818;49.394;8.686;2023-08-30T01:04:29;7.90;;;4.40;;
60098;SDS011;62818;49.394;8.686;2023-08-30T01:05:30;5.22;;;4.22;;
60098;SDS011;62818;49.394;8.686;2023-08-30T01:06:30;5.43;;;4.60;;
60098;SDS011;62818;49.394;8.686;2023-08-30T01:07:31;4.20;;;3.80;;
60098;SDS011;62818;49.394;8.686;2023-08-30T01:08:31;5.50;;;4.17;;
60098;SDS011;62818;49.394;8.686;2023-08-30T01:09:33;5.68;;;4.05;;
60098;SDS011;62818;49.394;8.686;2023-08-30T01:10:37;4.68;;;4.28;;
60098;SDS011;62818;49.394;8.686;2023-08-30T01:12:00;4.93;;;4.35;;
60098;SDS011;62818;49.394;8.686;2023-08-30T01:13:11;6.63;;;4.30;;
60098;SDS011;62818;49.394;8.686;2023-08-30T01:14:20;5.22;;;4.22;;
60098;SDS011;62818;49.394;8.686;2023-08-30T01:15:25;4.82;;;4.32;;
60098;SDS011;62818;49.394;8.686;2023-08-30T01:16:27;7.15;;;4.40;;
60098;SDS011;62818;49.394;8.686;2023-08-30T01:17:27;4.30;;;3.95;;
60098;SDS011;62818;49.394;8.686;2023-08-30T01:18:31;4.72;;;3.92;;
60098;SDS011;62818;49.394;8.686;2023-08-30T01:19:43;4.35;;;3.67;;
60098;SDS011;62818;49.394;8.686;2023-08-30T01:20:55;4.70;;;3.95;;
60098;SDS011;62818;49.394;8.686;2023-08-30T01:23:38;5.20;;;4.15;;
60098;SDS011;62818;49.394;8.686;2023-08-30T01:24:55;4.80;;;4.30;;
60098;SDS011;62818;49.394;8.686;2023-08-30T01:26:24;4.35;;;4.03;;
60098;SDS011;62818;49.394;8.686;2023-08-30T01:27:44;8.07;;;4.22;;
60098;SDS011;62818;49.394;8.686;2023-08-30T01:28:48;6.38;;;4.43;;
60098;SDS011;62818;49.394;8.686;2023-08-30T01:29:52;5.45;;;4.68;;
60098;SDS011;62818;49.394;8.686;2023-08-30T01:30:56;5.35;;;3.92;;
60098;SDS011;62818;49.394;8.686;2023-08-30T01:31:59;6.90;;;3.78;;
60098;SDS011;62818;49.394;8.686;2023-08-30T01:33:01;6.50;;;4.65;;
60098;SDS011;62818;49.394;8.686;2023-08-30T01:34:03;4.70;;;4.20;;
60098;SDS011;62818;49.394;8.686;2023-08-30T01:35:04;8.00;;;4.83;;
60098;SDS011;62818;49.394;8.686;2023-08-30T01:36:07;5.47;;;4.60;;
60098;SDS011;62818;49.394;8.686;2023-08-30T01:37:09;5.00;;;4.50;;
60098;SDS011;62818;49.394;8.686;2023-08-30T01:38:10;5.65;;;4.50;;
60098;SDS011;62818;49.394;8.686;2023-08-30T01:39:11;5.68;;;4.40;;
60098;SDS011;62818;49.394;8.686;2023-08-30T01:40:15;5.53;;;4.60;;
60098;SDS011;62818;49.394;8.686;2023-08-30T01:41:18;4.65;;;4.22;;
60098;SDS011;62818;49.394;8.686;2023-08-30T01:42:20;5.15;;;4.65;;
60098;SDS011;62818;49.394;8.686;2023-08-30T01:43:22;5.85;;;4.80;;
60098;SDS011;62818;49.394;8.686;2023-08-30T01:44:29;5.60;;;4.70;;
60098;SDS011;62818;49.394;8.686;2023-08-30T01:45:33;6.32;;;4.43;;
60098;SDS011;62818;49.394;8.686;2023-08-30T01:46:38;4.97;;;4.40;;
60098;SDS011;62818;49.394;8.686;2023-08-30T01:47:39;5.10;;;4.60;;
60098;SDS011;62818;49.394;8.686;2023-08-30T01:48:43;6.22;;;4.72;;
60098;SDS011;62818;49.394;8.686;2023-08-30T01:49:46;5.60;;;5.05;;
60098;SDS011;62818;49.394;8.686;2023-08-30T01:50:47;6.40;;;4.85;;
60098;SDS011;62818;49.394;8.686;2023-08-30T01:51:49;6.18;;;5.07;;
60098;SDS011;62818;49.394;8.686;2023-08-30T01:52:51;7.60;;;5.10;;
60098;SDS011;62818;49.394;8.686;2023-08-30T01:53:54;6.22;;;5.63;;
60098;SDS011;62818;49.394;8.686;2023-08-30T01:54:57;7.32;;;5.30;;
60098;SDS011;62818;49.394;8.686;2023-08-30T01:56:00;9.10;;;5.95;;
60098;SDS011;62818;49.394;8.686;2023-08-30T01:57:00;6.30;;;5.37;;
60098;SDS011;62818;49.394;8.686;2023-08-30T01:58:01;6.07;;;5.10;;
60098;SDS011;62818;49.394;8.686;2023-08-30T01:59:03;7.28;;;5.63;;
60098;SDS011;62818;49.394;8.686;2023-08-30T02:00:03;7.93;;;6.43;;
60098;SDS011;62818;49.394;8.686;2023-08-30T02:01:05;8.70;;;7.20;;
60098;SDS011;62818;49.394;8.686;2023-08-30T02:02:06;6.00;;;5.50;;
60098;SDS011;62818;49.394;8.686;2023-08-30T02:03:07;5.93;;;5.33;;
60098;SDS011;62818;49.394;8.686;2023-08-30T02:04:14;6.70;;;5.15;;
60098;SDS011;62818;49.394;8.686;2023-08-30T02:05:15;5.57;;;5.00;;
60098;SDS011;62818;49.394;8.686;2023-08-30T02:06:17;10.83;;;5.20;;
60098;SDS011;62818;49.394;8.686;2023-08-30T02:07:37;7.95;;;6.00;;
60098;SDS011;62818;49.394;8.686;2023-08-30T02:08:55;8.07;;;5.57;;
60098;SDS011;62818;49.394;8.686;2023-08-30T02:10:10;10.23;;;5.90;;
60098;SDS011;62818;49.394;8.686;2023-08-30T02:11:19;6.90;;;5.40;;
60098;SDS011;62818;49.394;8.686;2023-08-30T02:12:23;9.05;;;6.00;;
60098;SDS011;62818;49.394;8.686;2023-08-30T02:13:31;9.30;;;5.60;;
60098;SDS011;62818;49.394;8.686;2023-08-30T02:14:34;8.30;;;5.68;;
60098;SDS011;62818;49.394;8.686;2023-08-30T02:15:38;7.60;;;5.60;;
60098;SDS011;62818;49.394;8.686;2023-08-30T02:16:42;7.40;;;5.40;;
60098;SDS011;62818;49.394;8.686;2023-08-30T02:17:46;7.53;;;5.80;;
60098;SDS011;62818;49.394;8.686;2023-08-30T02:18:48;7.82;;;5.65;;
60098;SDS011;62818;49.394;8.686;2023-08-30T02:19:50;6.05;;;5.50;;
60098;SDS011;62818;49.394;8.686;2023-08-30T02:20:53;8.85;;;6.10;;
60098;SDS011;62818;49.394;8.686;2023-08-30T02:21:56;10.10;;;6.80;;
60098;SDS011;62818;49.394;8.686;2023-08-30T02:23:00;6.90;;;6.20;;
60098;SDS011;62818;49.394;8.686;2023-08-30T02:24:00;8.05;;;7.03;;
60098;SDS011;62818;49.394;8.686;2023-08-30T02:25:01;7.60;;;6.60;;
60098;SDS011;62818;49.394;8.686;2023-08-30T02:26:04;6.70;;;6.10;;
60098;SDS011;62818;49.394;8.686;2023-08-30T02:27:05;10.82;;;6.45;;
60098;SDS011;62818;49.394;8.686;2023-08-30T02:28:06;8.43;;;7.00;;
60098;SDS011;62818;49.394;8.686;2023-08-30T02:29:06;11.23;;;6.83;;
60098;SDS011;62818;49.394;8.686;2023-08-30T02:30:08;8.38;;;6.82;;
60098;SDS011;62818;49.394;8.686;2023-08-30T02:31:09;7.45;;;6.18;;
60098;SDS011;62818;49.394;8.686;2023-08-30T02:32:09;7.87;;;6.43;;
60098;SDS011;62818;49.394;8.686;2023-08-30T02:33:10;7.13;;;6.30;;
60098;SDS011;62818;49.394;8.686;2023-08-30T02:34:10;7.10;;;6.40;;
60098;SDS011;62818;49.394;8.686;2023-08-30T02:35:11;8.10;;;7.03;;
60098;SDS011;62818;49.394;8.686;2023-08-30T02:36:11;8.80;;;7.00;;
60098;SDS011;62818;49.394;8.686;2023-08-30T02:37:11;7.27;;;6.47;;
60098;SDS011;62818;49.394;8.686;2023-08-30T02:38:12;10.60;;;6.50;;
60098;SDS011;62818;49.394;8.686;2023-08-30T02:39:15;13.30;;;7.20;;
60098;SDS011;62818;49.394;8.686;2023-08-30T02:40:16;8.43;;;6.82;;
60098;SDS011;62818;49.394;8.686;2023-08-30T02:41:16;9.67;;;7.23;;
60098;SDS011;62818;49.394;8.686;2023-08-30T02:42:17;7.17;;;6.50;;
60098;SDS011;62818;49.394;8.686;2023-08-30T02:43:17;7.53;;;6.80;;
60098;SDS011;62818;49.394;8.686;2023-08-30T02:44:18;9.00;;;7.17;;
60098;SDS011;62818;49.394;8.686;2023-08-30T02:45:18;7.27;;;6.47;;
60098;SDS011;62818;49.394;8.686;2023-08-30T02:46:19;7.50;;;6.70;;
60098;SDS011;62818;49.394;8.686;2023-08-30T02:47:19;8.50;;;6.90;;
60098;SDS011;62818;49.394;8.686;2023-08-30T02:48:20;8.97;;;8.07;;
60098;SDS011;62818;49.394;8.686;2023-08-30T02:49:20;9.10;;;7.03;;
60098;SDS011;62818;49.394;8.686;2023-08-30T02:50:21;7.30;;;6.60;;
60098;SDS011;62818;49.394;8.686;2023-08-30T02:51:21;8.53;;;6.70;;
60098;SDS011;62818;49.394;8.686;2023-08-30T02:52:22;7.57;;;6.57;;
60098;SDS011;62818;49.394;8.686;2023-08-30T02:53:22;7.87;;;6.90;;
60098;SDS011;62818;49.394;8.686;2023-08-30T02:54:23;7.90;;;6.37;;
60098;SDS011;62818;49.394;8.686;2023-08-30T02:55:23;6.70;;;6.20;;
60098;SDS011;62818;49.394;8.686;2023-08-30T02:56:24;7.10;;;6.40;;
60098;SDS011;62818;49.394;8.686;2023-08-30T02:57:25;8.38;;;7.00;;
60098;SDS011;62818;49.394;8.686;2023-08-30T02:58:26;10.20;;;6.33;;
60098;SDS011;62818;49.394;8.686;2023-08-30T02:59:26;8.23;;;6.30;;
60098;SDS011;62818;49.394;8.686;2023-08-30T03:00:26;7.10;;;6.47;;
60098;SDS011;62818;49.394;8.686;2023-08-30T03:01:27;6.43;;;5.83;;
60098;SDS011;62818;49.394;8.686;2023-08-30T03:02:27;7.73;;;5.93;;
60098;SDS011;62818;49.394;8.686;2023-08-30T03:03:28;8.98;;;6.30;;
60098;SDS011;62818;49.394;8.686;2023-08-30T03:04:29;7.10;;;6.43;;
60098;SDS011;62818;49.394;8.686;2023-08-30T03:05:29;11.03;;;6.30;;
60098;SDS011;62818;49.394;8.686;2023-08-30T03:06:30;7.10;;;6.07;;
60098;SDS011;62818;49.394;8.686;2023-08-30T03:07:32;6.78;;;6.10;;
60098;SDS011;62818;49.394;8.686;2023-08-30T03:08:32;8.00;;;7.17;;
60098;SDS011;62818;49.394;8.686;2023-08-30T03:09:33;9.07;;;7.03;;
60098;SDS011;62818;49.394;8.686;2023-08-30T03:10:33;9.83;;;6.97;;
60098;SDS011;62818;49.394;8.686;2023-08-30T03:11:33;7.77;;;6.97;;
60098;SDS011;62818;49.394;8.686;2023-08-30T03:12:34;7.27;;;6.57;;
60098;SDS011;62818;49.394;8.686;2023-08-30T03:13:34;9.70;;;8.23;;
60098;SDS011;62818;49.394;8.686;2023-08-30T03:14:37;8.05;;;6.57;;
60098;SDS011;62818;49.394;8.686;2023-08-30T03:15:37;9.20;;;6.10;;
60098;SDS011;62818;49.394;8.686;2023-08-30T03:16:37;7.83;;;6.77;;
60098;SDS011;62818;49.394;8.686;2023-08-30T03:17:38;8.00;;;6.60;;
60098;SDS011;62818;49.394;8.686;2023-08-30T03:18:39;8.17;;;6.70;;
60098;SDS011;62818;49.394;8.686;2023-08-30T03:19:41;8.48;;;6.40;;
60098;SDS011;62818;49.394;8.686;2023-08-30T03:20:41;8.60;;;6.80;;
60098;SDS011;62818;49.394;8.686;2023-08-30T03:21:42;8.77;;;6.33;;
60098;SDS011;62818;49.394;8.686;2023-08-30T03:22:42;8.53;;;7.13;;
60098;SDS011;62818;49.394;8.686;2023-08-30T03:23:42;7.47;;;6.60;;
60098;SDS011;62818;49.394;8.686;2023-08-30T03:24:43;14.47;;;6.80;;
60098;SDS011;62818;49.394;8.686;2023-08-30T03:25:44;8.53;;;6.77;;
60098;SDS011;62818;49.394;8.686;2023-08-30T03:26:44;9.43;;;6.80;;
60098;SDS011;62818;49.394;8.686;2023-08-30T03:27:44;7.73;;;6.90;;
60098;SDS011;62818;49.394;8.686;2023-08-30T03:28:45;7.90;;;7.10;;
60098;SDS011;62818;49.394;8.686;2023-08-30T03:29:46;7.60;;;6.97;;
60098;SDS011;62818;49.394;8.686;2023-08-30T03:30:46;8.83;;;6.80;;
60098;SDS011;62818;49.394;8.686;2023-08-30T03:31:47;7.90;;;6.30;;
60098;SDS011;62818;49.394;8.686;2023-08-30T03:32:47;7.82;;;6.57;;
60098;SDS011;62818;49.394;8.686;2023-08-30T03:33:48;8.10;;;6.53;;
60098;SDS011;62818;49.394;8.686;2023-08-30T03:34:49;6.82;;;6.13;;
60098;SDS011;62818;49.394;8.686;2023-08-30T03:35:50;7.60;;;6.53;;
60098;SDS011;62818;49.394;8.686;2023-08-30T03:36:51;8.27;;;6.30;;
60098;SDS011;62818;49.394;8.686;2023-08-30T03:37:54;6.68;;;5.70;;
60098;SDS011;62818;49.394;8.686;2023-08-30T03:38:57;5.90;;;5.40;;
60098;SDS011;62818;49.394;8.686;2023-08-30T03:39:57;6.43;;;5.73;;
60098;SDS011;62818;49.394;8.686;2023-08-30T03:40:58;6.87;;;6.17;;
60098;SDS011;62818;49.394;8.686;2023-08-30T03:41:58;7.37;;;6.60;;
60098;SDS011;62818;49.394;8.686;2023-08-30T03:42:59;6.73;;;6.00;;
60098;SDS011;62818;49.394;8.686;2023-08-30T03:43:59;10.17;;;6.80;;
60098;SDS011;62818;49.394;8.686;2023-08-30T03:45:00;8.00;;;7.30;;
60098;SDS011;62818;49.394;8.686;2023-08-30T03:46:00;8.97;;;7.43;;
60098;SDS011;62818;49.394;8.686;2023-08-30T03:47:02;9.73;;;8.73;;
60098;SDS011;62818;49.394;8.686;2023-08-30T03:48:03;8.40;;;6.80;;
60098;SDS011;62818;49.394;8.686;2023-08-30T03:49:04;7.10;;;6.40;;
60098;SDS011;62818;49.394;8.686;2023-08-30T03:50:05;7.77;;;6.93;;
60098;SDS011;62818;49.394;8.686;2023-08-30T03:51:06;7.10;;;6.40;;
60098;SDS011;62818;49.394;8.686;2023-08-30T03:52:07;11.00;;;6.57;;
60098;SDS011;62818;49.394;8.686;2023-08-30T03:53:07;7.73;;;6.73;;
60098;SDS011;62818;49.394;8.686;2023-08-30T03:54:08;7.67;;;6.90;;
60098;SDS011;62818;49.394;8.686;2023-08-30T03:55:13;7.25;;;6.55;;
60098;SDS011;62818;49.394;8.686;2023-08-30T03:56:14;11.70;;;6.90;;
60098;SDS011;62818;49.394;8.686;2023-08-30T03:57:14;7.90;;;7.10;;
60098;SDS011;62818;49.394;8.686;2023-08-30T03:58:15;8.43;;;6.60;;
60098;SDS011;62818;49.394;8.686;2023-08-30T03:59:16;8.75;;;7.07;;
60098;SDS011;62818;49.394;8.686;2023-08-30T04:00:16;9.13;;;7.03;;
60098;SDS011;62818;49.394;8.686;2023-08-30T04:01:17;7.67;;;6.97;;
60098;SDS011;62818;49.394;8.686;2023-08-30T04:02:17;7.97;;;7.17;;
60098;SDS011;62818;49.394;8.686;2023-08-30T04:03:18;7.43;;;6.80;;
60098;SDS011;62818;49.394;8.686;2023-08-30T04:04:18;8.20;;;7.40;;
60098;SDS011;62818;49.394;8.686;2023-08-30T04:05:19;7.67;;;6.97;;
60098;SDS011;62818;49.394;8.686;2023-08-30T04:06:19;7.53;;;6.83;;
60098;SDS011;62818;49.394;8.686;2023-08-30T04:07:21;6.97;;;6.38;;
60098;SDS011;62818;49.394;8.686;2023-08-30T04:08:22;7.47;;;6.77;;
60098;SDS011;62818;49.394;8.686;2023-08-30T04:09:22;8.02;;;7.13;;
60098;SDS011;62818;49.394;8.686;2023-08-30T04:10:23;8.33;;;7.50;;
60098;SDS011;62818;49.394;8.686;2023-08-30T04:11:24;7.63;;;6.93;;
60098;SDS011;62818;49.394;8.686;2023-08-30T04:12:24;7.80;;;7.03;;
60098;SDS011;62818;49.394;8.686;2023-08-30T04:13:24;6.70;;;6.10;;
60098;SDS011;62818;49.394;8.686;2023-08-30T04:14:25;7.63;;;6.83;;
60098;SDS011;62818;49.394;8.686;2023-08-30T04:15:25;9.27;;;7.37;;
60098;SDS011;62818;49.394;8.686;2023-08-30T04:16:26;10.00;;;6.43;;
60098;SDS011;62818;49.394;8.686;2023-08-30T04:17:26;7.50;;;6.80;;
60098;SDS011;62818;49.394;8.686;2023-08-30T04:18:27;9.80;;;6.80;;
60098;SDS011;62818;49.394;8.686;2023-08-30T04:19:27;8.17;;;7.13;;
60098;SDS011;62818;49.394;8.686;2023-08-30T04:20:28;7.83;;;7.00;;
60098;SDS011;62818;49.394;8.686;2023-08-30T04:21:29;8.13;;;6.93;;
60098;SDS011;62818;49.394;8.686;2023-08-30T04:22:29;7.83;;;7.03;;
60098;SDS011;62818;49.394;8.686;2023-08-30T04:23:30;10.93;;;6.78;;
60098;SDS011;62818;49.394;8.686;2023-08-30T04:24:31;7.80;;;6.97;;
60098;SDS011;62818;49.394;8.686;2023-08-30T04:25:32;8.63;;;7.10;;
60098;SDS011;62818;49.394;8.686;2023-08-30T04:26:34;8.23;;;7.15;;
60098;SDS011;62818;49.394;8.686;2023-08-30T04:27:35;9.07;;;6.93;;
60098;SDS011;62818;49.394;8.686;2023-08-30T04:28:35;7.65;;;6.85;;
60098;SDS011;62818;49.394;8.686;2023-08-30T04:29:36;8.43;;;6.83;;
60098;SDS011;62818;49.394;8.686;2023-08-30T04:30:36;11.03;;;6.73;;
60098;SDS011;62818;49.394;8.686;2023-08-30T04:31:38;7.60;;;6.90;;
60098;SDS011;62818;49.394;8.686;2023-08-30T04:32:38;9.53;;;7.53;;
60098;SDS011;62818;49.394;8.686;2023-08-30T04:33:39;11.73;;;7.20;;
60098;SDS011;62818;49.394;8.686;2023-08-30T04:34:40;7.23;;;6.53;;
60098;SDS011;62818;49.394;8.686;2023-08-30T04:35:40;7.67;;;6.97;;
60098;SDS011;62818;49.394;8.686;2023-08-30T04:36:41;10.70;;;7.00;;
60098;SDS011;62818;49.394;8.686;2023-08-30T04:37:41;7.13;;;6.47;;
60098;SDS011;62818;49.394;8.686;2023-08-30T04:38:42;7.18;;;6.32;;
60098;SDS011;62818;49.394;8.686;2023-08-30T04:39:43;7.97;;;7.17;;
60098;SDS011;62818;49.394;8.686;2023-08-30T04:40:48;9.90;;;7.30;;
60098;SDS011;62818;49.394;8.686;2023-08-30T04:41:49;7.83;;;6.43;;
60098;SDS011;62818;49.394;8.686;2023-08-30T04:42:49;7.83;;;6.93;;
60098;SDS011;62818;49.394;8.686;2023-08-30T04:43:50;7.73;;;7.00;;
60098;SDS011;62818;49.394;8.686;2023-08-30T04:44:51;10.10;;;7.00;;
60098;SDS011;62818;49.394;8.686;2023-08-30T04:45:54;9.88;;;6.72;;
60098;SDS011;62818;49.394;8.686;2023-08-30T04:46:54;7.97;;;6.57;;
60098;SDS011;62818;49.394;8.686;2023-08-30T04:47:55;7.50;;;6.80;;
60098;SDS011;62818;49.394;8.686;2023-08-30T04:48:55;7.30;;;6.60;;
60098;SDS011;62818;49.394;8.686;2023-08-30T04:49:56;13.10;;;7.10;;
60098;SDS011;62818;49.394;8.686;2023-08-30T04:50:58;8.50;;;6.95;;
60098;SDS011;62818;49.394;8.686;2023-08-30T04:52:03;8.55;;;7.10;;
60098;SDS011;62818;49.394;8.686;2023-08-30T04:53:04;9.45;;;7.30;;
60098;SDS011;62818;49.394;8.686;2023-08-30T04:54:05;9.10;;;7.13;;
60098;SDS011;62818;49.394;8.686;2023-08-30T04:55:06;8.00;;;6.77;;
60098;SDS011;62818;49.394;8.686;2023-08-30T04:56:11;12.15;;;8.10;;
60098;SDS011;62818;49.394;8.686;2023-08-30T04:57:13;11.02;;;6.40;;
60098;SDS011;62818;49.394;8.686;2023-08-30T04:58:17;8.85;;;7.20;;
60098;SDS011;62818;49.394;8.686;2023-08-30T04:59:17;7.87;;;6.27;;
60098;SDS011;62818;49.394;8.686;2023-08-30T05:00:18;8.30;;;7.13;;
60098;SDS011;62818;49.394;8.686;2023-08-30T05:01:19;8.50;;;7.68;;
60098;SDS011;62818;49.394;8.686;2023-08-30T05:02:19;9.40;;;7.30;;
60098;SDS011;62818;49.394;8.686;2023-08-30T05:03:20;7.83;;;7.07;;
60098;SDS011;62818;49.394;8.686;2023-08-30T05:04:20;7.67;;;6.83;;
60098;SDS011;62818;49.394;8.686;2023-08-30T05:05:21;7.33;;;6.50;;
60098;SDS011;62818;49.394;8.686;2023-08-30T05:06:21;8.87;;;6.43;;
60098;SDS011;62818;49.394;8.686;2023-08-30T05:07:22;7.75;;;6.95;;
60098;SDS011;62818;49.394;8.686;2023-08-30T05:08:23;7.67;;;6.37;;
60098;SDS011;62818;49.394;8.686;2023-08-30T05:09:23;7.73;;;6.93;;
60098;SDS011;62818;49.394;8.686;2023-08-30T05:10:25;8.55;;;6.03;;
60098;SDS011;62818;49.394;8.686;2023-08-30T05:11:25;10.23;;;6.90;;
60098;SDS011;62818;49.394;8.686;2023-08-30T05:12:25;6.47;;;5.90;;
60098;SDS011;62818;49.394;8.686;2023-08-30T05:13:26;8.33;;;6.87;;
60098;SDS011;62818;49.394;8.686;2023-08-30T05:14:26;7.07;;;6.37;;
60098;SDS011;62818;49.394;8.686;2023-08-30T05:15:27;6.90;;;6.30;;
60098;SDS011;62818;49.394;8.686;2023-08-30T05:16:27;6.93;;;6.30;;
60098;SDS011;62818;49.394;8.686;2023-08-30T05:17:28;8.43;;;6.53;;
60098;SDS011;62818;49.394;8.686;2023-08-30T05:18:28;6.47;;;5.90;;
60098;SDS011;62818;49.394;8.686;2023-08-30T05:19:29;7.73;;;6.50;;
60098;SDS011;62818;49.394;8.686;2023-08-30T05:20:30;7.07;;;6.22;;
60098;SDS011;62818;49.394;8.686;2023-08-30T05:21:30;10.13;;;6.07;;
60098;SDS011;62818;49.394;8.686;2023-08-30T05:22:31;7.43;;;6.13;;
60098;SDS011;62818;49.394;8.686;2023-08-30T05:23:31;7.97;;;6.00;;
60098;SDS011;62818;49.394;8.686;2023-08-30T05:24:31;7.30;;;6.30;;
60098;SDS011;62818;49.394;8.686;2023-08-30T05:26:34;6.95;;;6.22;;
60098;SDS011;62818;49.394;8.686;2023-08-30T05:27:34;7.57;;;6.50;;
60098;SDS011;62818;49.394;8.686;2023-08-30T05:28:35;6.20;;;5.57;;
60098;SDS011;62818;49.394;8.686;2023-08-30T05:29:35;6.70;;;6.10;;
60098;SDS011;62818;49.394;8.686;2023-08-30T05:30:36;7.20;;;6.50;;
60098;SDS011;62818;49.394;8.686;2023-08-30T05:31:37;6.03;;;5.43;;
60098;SDS011;62818;49.394;8.686;2023-08-30T05:32:37;5.93;;;5.37;;
60098;SDS011;62818;49.394;8.686;2023-08-30T05:33:38;8.30;;;6.10;;
60098;SDS011;62818;49.394;8.686;2023-08-30T05:34:38;8.07;;;6.90;;
60098;SDS011;62818;49.394;8.686;2023-08-30T05:35:38;7.07;;;6.37;;
60098;SDS011;62818;49.394;8.686;2023-08-30T05:36:39;5.97;;;5.47;;
60098;SDS011;62818;49.394;8.686;2023-08-30T05:37:39;6.20;;;5.60;;
60098;SDS011;62818;49.394;8.686;2023-08-30T05:38:40;6.67;;;5.97;;
60098;SDS011;62818;49.394;8.686;2023-08-30T05:40:42;6.45;;;5.63;;
60098;SDS011;62818;49.394;8.686;2023-08-30T05:41:44;6.18;;;5.10;;
60098;SDS011;62818;49.394;8.686;2023-08-30T05:42:45;9.43;;;5.27;;
60098;SDS011;62818;49.394;8.686;2023-08-30T05:43:45;7.07;;;5.77;;
60098;SDS011;62818;49.394;8.686;2023-08-30T05:44:46;7.20;;;5.67;;
60098;SDS011;62818;49.394;8.686;2023-08-30T05:45:47;7.27;;;5.57;;
60098;SDS011;62818;49.394;8.686;2023-08-30T05:46:47;8.13;;;5.50;;
60098;SDS011;62818;49.394;8.686;2023-08-30T05:47:48;6.33;;;5.40;;
60098;SDS011;62818;49.394;8.686;2023-08-30T05:48:48;7.90;;;6.10;;
60098;SDS011;62818;49.394;8.686;2023-08-30T05:49:49;9.45;;;5.43;;
60098;SDS011;62818;49.394;8.686;2023-08-30T05:50:50;7.47;;;5.70;;
60098;SDS011;62818;49.394;8.686;2023-08-30T05:51:50;5.97;;;5.30;;
60098;SDS011;62818;49.394;8.686;2023-08-30T05:52:51;6.43;;;5.77;;
60098;SDS011;62818;49.394;8.686;2023-08-30T05:53:51;7.43;;;5.97;;
60098;SDS011;62818;49.394;8.686;2023-08-30T05:54:52;6.73;;;6.00;;
60098;SDS011;62818;49.394;8.686;2023-08-30T05:55:52;6.90;;;6.13;;
60098;SDS011;62818;49.394;8.686;2023-08-30T05:56:53;7.50;;;5.70;;
60098;SDS011;62818;49.394;8.686;2023-08-30T05:57:53;7.00;;;6.22;;
60098;SDS011;62818;49.394;8.686;2023-08-30T05:58:54;6.33;;;5.33;;
60098;SDS011;62818;49.394;8.686;2023-08-30T05:59:55;8.87;;;5.83;;
60098;SDS011;62818;49.394;8.686;2023-08-30T06:00:56;6.93;;;5.70;;
60098;SDS011;62818;49.394;8.686;2023-08-30T06:01:57;7.57;;;5.82;;
60098;SDS011;62818;49.394;8.686;2023-08-30T06:02:57;6.63;;;5.70;;
60098;SDS011;62818;49.394;8.686;2023-08-30T06:03:58;7.20;;;5.97;;
60098;SDS011;62818;49.394;8.686;2023-08-30T06:04:58;7.37;;;6.50;;
60098;SDS011;62818;49.394;8.686;2023-08-30T06:05:59;6.37;;;5.77;;
60098;SDS011;62818;49.394;8.686;2023-08-30T06:06:59;6.53;;;5.93;;
60098;SDS011;62818;49.394;8.686;2023-08-30T06:08:00;6.90;;;6.23;;
60098;SDS011;62818;49.394;8.686;2023-08-30T06:09:00;8.10;;;5.63;;
60098;SDS011;62818;49.394;8.686;2023-08-30T06:10:01;6.40;;;5.57;;
60098;SDS011;62818;49.394;8.686;2023-08-30T06:11:02;7.05;;;6.35;;
60098;SDS011;62818;49.394;8.686;2023-08-30T06:12:02;5.93;;;5.33;;
60098;SDS011;62818;49.394;8.686;2023-08-30T06:13:03;6.13;;;5.55;;
60098;SDS011;62818;49.394;8.686;2023-08-30T06:14:04;7.83;;;5.60;;
60098;SDS011;62818;49.394;8.686;2023-08-30T06:15:05;8.45;;;5.28;;
60098;SDS011;62818;49.394;8.686;2023-08-30T06:16:06;7.47;;;5.93;;
60098;SDS011;62818;49.394;8.686;2023-08-30T06:17:07;6.55;;;5.78;;